createdAt,value
2018-09-16T00:00:34.439Z,57.86
2018-09-16T00:03:02.716Z,57.87
2018-09-16T00:05:30.989Z,57.05
2018-09-16T00:07:59.308Z,57.34
2018-09-16T00:10:28.347Z,57.66
2018-09-16T00:12:56.641Z,57.52
2018-09-16T00:15:24.945Z,57.21
2018-09-16T00:17:53.243Z,57.35
2018-09-16T00:20:21.502Z,57.21
2018-09-16T00:22:49.804Z,57.58
2018-09-16T00:25:18.051Z,56.70
2018-09-16T00:27:46.308Z,57.43
2018-09-16T00:30:15.312Z,56.81
2018-09-16T00:32:43.759Z,57.23
2018-09-16T00:35:12.645Z,57.81
2018-09-16T00:37:40.922Z,58.37
2018-09-16T00:40:09.200Z,58.69
2018-09-16T00:42:37.460Z,58.65
2018-09-16T00:45:06.041Z,58.76
2018-09-16T00:47:34.321Z,59.11
2018-09-16T00:50:03.255Z,58.84
2018-09-16T00:52:31.565Z,58.57
2018-09-16T00:54:59.869Z,58.11
2018-09-16T00:57:28.137Z,57.85
2018-09-16T00:59:56.410Z,57.88
2018-09-16T01:02:24.636Z,58.38
2018-09-16T01:04:52.892Z,58.76
2018-09-16T01:07:21.116Z,58.42
2018-09-16T01:09:49.381Z,58.90
2018-09-16T01:12:17.593Z,58.97
2018-09-16T01:14:45.832Z,58.96
2018-09-16T01:17:14.044Z,59.01
2018-09-16T01:19:43.840Z,58.91
2018-09-16T01:22:12.081Z,59.00
2018-09-16T01:24:40.301Z,59.40
2018-09-16T01:27:08.537Z,59.01
2018-09-16T01:29:36.762Z,59.04
2018-09-16T01:32:05.083Z,59.18
2018-09-16T01:34:33.301Z,58.33
2018-09-16T01:37:05.721Z,58.92
2018-09-16T01:39:34.112Z,59.08
2018-09-16T01:42:02.377Z,59.39
2018-09-16T01:44:30.609Z,59.03
2018-09-16T01:46:58.861Z,59.08
2018-09-16T01:49:27.084Z,59.24
2018-09-16T01:51:55.325Z,58.95
2018-09-16T01:54:23.548Z,59.03
2018-09-16T01:56:51.782Z,58.27
2018-09-16T01:59:20.040Z,57.70
2018-09-16T02:01:48.297Z,58.22
2018-09-16T02:04:16.533Z,58.12
2018-09-16T02:06:44.770Z,58.65
2018-09-16T02:09:12.985Z,58.66
2018-09-16T02:11:41.246Z,57.86
2018-09-16T02:14:09.480Z,58.33
2018-09-16T02:16:37.752Z,58.68
2018-09-16T02:19:06.040Z,59.34
2018-09-16T02:21:34.269Z,59.09
2018-09-16T02:24:02.512Z,59.15
2018-09-16T02:26:30.784Z,59.06
2018-09-16T02:28:59.088Z,59.05
2018-09-16T02:31:27.321Z,59.69
2018-09-16T02:33:55.581Z,59.67
2018-09-16T02:36:23.793Z,60.20
2018-09-16T02:38:52.065Z,59.43
2018-09-16T02:41:20.285Z,59.05
2018-09-16T02:43:48.569Z,59.49
2018-09-16T02:46:16.788Z,58.91
2018-09-16T02:48:45.018Z,58.44
2018-09-16T02:51:13.261Z,59.32
2018-09-16T02:53:41.496Z,58.86
2018-09-16T02:56:09.718Z,59.31
2018-09-16T02:58:37.949Z,59.57
2018-09-16T03:01:06.192Z,59.90
2018-09-16T03:03:34.545Z,59.81
2018-09-16T03:06:02.754Z,60.08
2018-09-16T03:08:30.998Z,59.86
2018-09-16T03:10:59.230Z,59.56
2018-09-16T03:13:27.464Z,59.73
2018-09-16T03:15:55.686Z,59.72
2018-09-16T03:18:23.929Z,60.19
2018-09-16T03:20:52.136Z,60.63
2018-09-16T03:23:20.354Z,60.64
2018-09-16T03:25:48.568Z,60.57
2018-09-16T03:28:16.805Z,60.97
2018-09-16T03:30:45.049Z,60.97
2018-09-16T03:33:13.253Z,61.42
2018-09-16T03:35:41.480Z,60.21
2018-09-16T03:38:09.685Z,60.51
2018-09-16T03:40:37.943Z,60.90
2018-09-16T03:43:06.320Z,60.87
2018-09-16T03:45:34.557Z,61.07
2018-09-16T03:48:02.801Z,61.03
2018-09-16T03:50:31.041Z,60.88
2018-09-16T03:52:59.249Z,61.04
2018-09-16T03:55:27.475Z,60.57
2018-09-16T03:57:55.680Z,60.60
2018-09-16T04:00:23.950Z,60.41
2018-09-16T04:02:52.188Z,60.34
2018-09-16T04:05:20.784Z,59.56
2018-09-16T04:07:49.956Z,60.22
2018-09-16T04:10:18.233Z,59.97
2018-09-16T04:12:46.603Z,59.71
2018-09-16T04:15:14.880Z,59.94
2018-09-16T04:17:43.115Z,59.94
2018-09-16T04:20:11.344Z,59.83
2018-09-16T04:22:39.601Z,60.28
2018-09-16T04:25:08.143Z,60.12
2018-09-16T04:27:36.369Z,60.43
2018-09-16T04:30:04.953Z,61.10
2018-09-16T04:32:33.217Z,61.26
2018-09-16T04:35:01.449Z,61.32
2018-09-16T04:37:29.690Z,61.11
2018-09-16T04:39:57.925Z,60.82
2018-09-16T04:42:26.185Z,61.25
2018-09-16T04:44:55.467Z,61.92
2018-09-16T04:47:23.697Z,61.48
2018-09-16T04:49:51.917Z,61.89
2018-09-16T04:52:20.190Z,62.37
2018-09-16T04:54:48.417Z,61.66
2018-09-16T04:57:16.660Z,62.03
2018-09-16T04:59:44.993Z,62.41
2018-09-16T05:02:13.230Z,62.11
2018-09-16T05:04:41.506Z,61.93
2018-09-16T05:07:09.816Z,61.57
2018-09-16T05:09:38.101Z,60.58
2018-09-16T05:12:06.715Z,60.67
2018-09-16T05:14:35.018Z,60.19
2018-09-16T05:17:03.322Z,60.97
2018-09-16T05:19:31.595Z,61.20
2018-09-16T05:21:59.912Z,61.77
2018-09-16T05:24:28.204Z,61.45
2018-09-16T05:26:56.568Z,61.84
2018-09-16T05:29:24.838Z,61.93
2018-09-16T05:31:53.136Z,62.11
2018-09-16T05:34:21.427Z,61.96
2018-09-16T05:36:49.829Z,62.19
2018-09-16T05:39:18.139Z,62.25
2018-09-16T05:41:46.494Z,62.70
2018-09-16T05:44:14.829Z,62.57
2018-09-16T05:46:43.122Z,62.60
2018-09-16T05:49:11.427Z,63.23
2018-09-16T05:51:39.735Z,62.79
2018-09-16T05:54:08.030Z,62.54
2018-09-16T05:56:36.338Z,62.80
2018-09-16T05:59:04.680Z,62.99
2018-09-16T06:01:32.984Z,62.94
2018-09-16T06:04:01.284Z,63.45
2018-09-16T06:06:29.589Z,62.32
2018-09-16T06:08:57.894Z,62.73
2018-09-16T06:11:26.189Z,63.51
2018-09-16T06:13:54.789Z,62.23
2018-09-16T06:16:23.086Z,62.00
2018-09-16T06:18:51.397Z,62.57
2018-09-16T06:21:19.683Z,62.43
2018-09-16T06:23:47.999Z,62.07
2018-09-16T06:26:16.357Z,61.79
2018-09-16T06:28:44.659Z,61.78
2018-09-16T06:31:12.941Z,61.39
2018-09-16T06:33:41.277Z,61.99
2018-09-16T06:36:09.524Z,61.99
2018-09-16T06:38:37.805Z,61.87
2018-09-16T06:41:06.281Z,62.17
2018-09-16T06:43:34.553Z,62.62
2018-09-16T06:46:02.941Z,61.87
2018-09-16T06:48:31.229Z,62.00
2018-09-16T06:50:59.592Z,60.92
2018-09-16T06:53:27.881Z,60.59
2018-09-16T06:55:56.201Z,60.84
2018-09-16T06:58:24.474Z,60.31
2018-09-16T07:00:52.853Z,60.73
2018-09-16T07:03:21.125Z,61.08
2018-09-16T07:05:49.592Z,61.63
2018-09-16T07:08:17.943Z,61.15
2018-09-16T07:10:46.260Z,61.31
2018-09-16T07:13:14.545Z,59.66
2018-09-16T07:15:42.840Z,60.09
2018-09-16T07:18:11.133Z,60.03
2018-09-16T07:20:39.461Z,59.63
2018-09-16T07:23:07.742Z,59.06
2018-09-16T07:25:36.038Z,58.59
2018-09-16T07:28:04.329Z,58.63
2018-09-16T07:30:32.659Z,58.50
2018-09-16T07:33:00.937Z,57.74
2018-09-16T07:35:29.237Z,57.77
2018-09-16T07:37:57.545Z,57.43
2018-09-16T07:40:25.813Z,56.82
2018-09-16T07:42:54.142Z,56.66
2018-09-16T07:45:22.421Z,57.19
2018-09-16T07:47:50.742Z,57.50
2018-09-16T07:50:19.115Z,56.15
2018-09-16T07:52:47.550Z,57.00
2018-09-16T07:55:15.774Z,56.13
2018-09-16T07:57:44.079Z,55.55
2018-09-16T08:00:12.399Z,56.43
2018-09-16T08:02:40.714Z,56.18
2018-09-16T08:05:09.074Z,56.11
2018-09-16T08:07:37.368Z,55.43
2018-09-16T08:10:05.689Z,54.44
2018-09-16T08:12:34.000Z,54.80
2018-09-16T08:15:02.269Z,53.65
2018-09-16T08:17:30.573Z,54.54
2018-09-16T08:19:58.849Z,53.21
2018-09-16T08:22:27.175Z,53.25
2018-09-16T08:24:55.704Z,53.49
2018-09-16T08:27:23.995Z,52.81
2018-09-16T08:29:52.286Z,51.81
2018-09-16T08:32:20.593Z,51.84
2018-09-16T08:34:48.857Z,51.38
2018-09-16T08:37:17.151Z,50.64
2018-09-16T08:39:45.488Z,51.31
2018-09-16T08:42:13.782Z,50.98
2018-09-16T08:44:42.077Z,49.65
2018-09-16T08:47:10.368Z,50.16
2018-09-16T08:49:38.663Z,49.61
2018-09-16T08:52:07.021Z,49.18
2018-09-16T08:54:35.325Z,48.86
2018-09-16T08:57:03.642Z,48.90
2018-09-16T08:59:32.000Z,48.73
2018-09-16T09:02:00.322Z,48.89
2018-09-16T09:04:28.656Z,48.79
2018-09-16T09:06:56.914Z,48.22
2018-09-16T09:09:25.223Z,47.93
2018-09-16T09:11:53.538Z,47.33
2018-09-16T09:14:21.909Z,48.10
2018-09-16T09:16:50.158Z,47.49
2018-09-16T09:19:18.474Z,46.44
2018-09-16T09:21:46.709Z,46.59
2018-09-16T09:24:14.957Z,45.46
2018-09-16T09:26:43.190Z,45.07
2018-09-16T09:29:11.457Z,45.36
2018-09-16T09:31:39.705Z,45.76
2018-09-16T09:34:07.960Z,43.81
2018-09-16T09:36:36.205Z,43.68
2018-09-16T09:39:06.525Z,43.73
2018-09-16T09:41:34.764Z,43.19
2018-09-16T09:44:03.053Z,42.96
2018-09-16T09:46:31.300Z,42.73
2018-09-16T09:48:59.528Z,41.97
2018-09-16T09:51:27.792Z,40.99
2018-09-16T09:53:56.049Z,41.37
2018-09-16T09:56:24.297Z,41.64
2018-09-16T09:58:52.599Z,41.75
2018-09-16T10:01:21.804Z,41.58
2018-09-16T10:03:50.056Z,41.47
2018-09-16T10:06:18.329Z,40.86
2018-09-16T10:08:46.571Z,41.48
2018-09-16T10:11:14.844Z,41.59
2018-09-16T10:13:43.069Z,41.71
2018-09-16T10:16:11.343Z,40.61
2018-09-16T10:18:39.613Z,40.17
2018-09-16T10:21:07.896Z,39.52
2018-09-16T10:23:36.133Z,40.03
2018-09-16T10:26:04.393Z,39.99
2018-09-16T10:28:32.625Z,40.48
2018-09-16T10:31:00.897Z,40.04
2018-09-16T10:33:29.141Z,40.80
2018-09-16T10:35:57.408Z,40.24
2018-09-16T10:38:25.656Z,40.30
2018-09-16T10:40:53.896Z,39.22
2018-09-16T10:43:22.131Z,40.05
2018-09-16T10:45:50.397Z,38.00
2018-09-16T10:48:18.665Z,39.03
2018-09-16T10:50:46.896Z,38.56
2018-09-16T10:53:16.260Z,38.43
2018-09-16T10:55:44.507Z,37.24
2018-09-16T10:58:13.033Z,37.80
2018-09-16T11:00:41.293Z,36.59
2018-09-16T11:03:09.540Z,35.99
2018-09-16T11:05:37.792Z,36.58
2018-09-16T11:08:06.152Z,35.80
2018-09-16T11:10:34.348Z,35.53
2018-09-16T11:13:02.798Z,35.63
2018-09-16T11:15:31.041Z,36.80
2018-09-16T11:17:59.297Z,36.02
2018-09-16T11:20:27.537Z,35.40
2018-09-16T11:22:55.792Z,36.25
2018-09-16T11:25:24.025Z,34.85
2018-09-16T11:27:52.313Z,35.79
2018-09-16T11:30:20.536Z,36.33
2018-09-16T11:32:48.799Z,36.98
2018-09-16T11:35:17.025Z,35.56
2018-09-16T11:37:45.720Z,34.53
2018-09-16T11:40:13.981Z,35.53
2018-09-16T11:42:42.248Z,36.25
2018-09-16T11:45:10.490Z,36.32
2018-09-16T11:47:38.792Z,35.24
2018-09-16T11:50:07.033Z,35.24
2018-09-16T11:52:35.265Z,35.63
2018-09-16T11:55:03.549Z,36.95
2018-09-16T11:57:31.784Z,35.83
2018-09-16T12:00:00.080Z,35.46
2018-09-16T12:02:28.349Z,35.59
2018-09-16T12:04:56.609Z,35.75
2018-09-16T12:07:24.853Z,36.31
2018-09-16T12:09:53.153Z,36.49
2018-09-16T12:12:21.385Z,36.32
2018-09-16T12:14:49.636Z,36.31
2018-09-16T12:17:17.864Z,36.06
2018-09-16T12:19:46.149Z,36.67
2018-09-16T12:22:14.419Z,34.52
2018-09-16T12:24:42.680Z,35.20
2018-09-16T12:27:10.926Z,34.66
2018-09-16T12:29:39.184Z,36.04
2018-09-16T12:32:07.413Z,35.02
2018-09-16T12:34:35.940Z,35.15
2018-09-16T12:37:04.192Z,34.90
2018-09-16T12:39:32.440Z,34.89
2018-09-16T12:42:00.694Z,34.76
2018-09-16T12:44:28.955Z,35.12
2018-09-16T12:46:57.188Z,35.75
2018-09-16T12:49:25.458Z,34.50
2018-09-16T12:51:53.697Z,33.33
2018-09-16T12:54:21.949Z,33.50
2018-09-16T12:56:50.308Z,33.57
2018-09-16T12:59:22.353Z,34.34
2018-09-16T13:01:50.642Z,34.72
2018-09-16T13:04:18.932Z,33.37
2018-09-16T13:06:47.165Z,33.70
2018-09-16T13:09:15.397Z,32.29
2018-09-16T13:11:43.637Z,32.80
2018-09-16T13:14:11.862Z,32.58
2018-09-16T13:16:40.117Z,31.79
2018-09-16T13:19:08.362Z,33.00
2018-09-16T13:21:36.629Z,32.97
2018-09-16T13:24:04.860Z,32.21
2018-09-16T13:26:33.125Z,32.38
2018-09-16T13:29:01.363Z,33.02
2018-09-16T13:31:29.647Z,33.37
2018-09-16T13:33:58.209Z,32.63
2018-09-16T13:36:26.478Z,33.57
2018-09-16T13:38:54.833Z,32.98
2018-09-16T13:41:23.106Z,31.93
2018-09-16T13:43:51.336Z,31.75
2018-09-16T13:46:19.616Z,32.21
2018-09-16T13:48:47.861Z,32.44
2018-09-16T13:51:16.138Z,33.09
2018-09-16T13:53:45.014Z,33.19
2018-09-16T13:56:13.236Z,32.82
2018-09-16T13:58:41.481Z,33.39
2018-09-16T14:01:09.736Z,32.82
2018-09-16T14:03:37.982Z,33.33
2018-09-16T14:06:06.254Z,33.70
2018-09-16T14:08:34.500Z,32.68
2018-09-16T14:11:02.728Z,33.19
2018-09-16T14:13:30.976Z,31.45
2018-09-16T14:15:59.203Z,32.28
2018-09-16T14:18:27.480Z,32.85
2018-09-16T14:20:55.836Z,32.35
2018-09-16T14:23:24.061Z,33.42
2018-09-16T14:25:52.589Z,33.74
2018-09-16T14:28:23.039Z,33.37
2018-09-16T14:30:51.249Z,33.79
2018-09-16T14:33:19.496Z,33.36
2018-09-16T14:35:47.724Z,33.76
2018-09-16T14:38:15.973Z,33.39
2018-09-16T14:40:44.257Z,32.93
2018-09-16T14:43:12.613Z,33.92
2018-09-16T14:45:40.830Z,33.04
2018-09-16T14:48:09.088Z,32.75
2018-09-16T14:50:37.353Z,33.09
2018-09-16T14:53:05.625Z,32.59
2018-09-16T14:55:33.878Z,32.78
2018-09-16T14:58:02.101Z,33.49
2018-09-16T15:00:30.390Z,32.39
2018-09-16T15:02:59.744Z,31.48
2018-09-16T15:05:27.992Z,32.38
2018-09-16T15:07:56.233Z,32.18
2018-09-16T15:10:24.484Z,31.24
2018-09-16T15:12:53.673Z,32.15
2018-09-16T15:15:21.968Z,31.72
2018-09-16T15:17:50.200Z,32.47
2018-09-16T15:20:18.448Z,32.37
2018-09-16T15:22:46.704Z,32.49
2018-09-16T15:25:14.957Z,31.86
2018-09-16T15:27:43.189Z,31.64
2018-09-16T15:30:11.472Z,31.43
2018-09-16T15:32:39.712Z,31.60
2018-09-16T15:35:08.010Z,31.07
2018-09-16T15:37:36.267Z,30.92
2018-09-16T15:40:04.540Z,30.81
2018-09-16T15:42:32.780Z,31.27
2018-09-16T15:45:01.062Z,31.12
2018-09-16T15:47:29.296Z,31.66
2018-09-16T15:49:57.558Z,32.52
2018-09-16T15:52:25.809Z,32.59
2018-09-16T15:54:54.117Z,32.76
2018-09-16T15:57:22.362Z,32.76
2018-09-16T15:59:50.665Z,32.72
2018-09-16T16:02:18.886Z,32.84
2018-09-16T16:04:47.165Z,31.94
2018-09-16T16:07:15.396Z,31.91
2018-09-16T16:09:44.000Z,33.10
2018-09-16T16:12:12.253Z,33.00
2018-09-16T16:14:40.493Z,32.36
2018-09-16T16:17:08.766Z,32.17
2018-09-16T16:19:37.009Z,33.05
2018-09-16T16:22:05.261Z,32.95
2018-09-16T16:24:33.617Z,33.80
2018-09-16T16:27:01.898Z,33.15
2018-09-16T16:29:30.130Z,33.25
2018-09-16T16:31:58.407Z,33.89
2018-09-16T16:34:26.724Z,33.73
2018-09-16T16:36:54.929Z,34.11
2018-09-16T16:39:23.158Z,34.28
2018-09-16T16:41:51.485Z,34.00
2018-09-16T16:44:19.704Z,35.05
2018-09-16T16:46:47.956Z,35.29
2018-09-16T16:49:16.221Z,34.75
2018-09-16T16:51:44.481Z,35.29
2018-09-16T16:54:13.886Z,35.18
2018-09-16T16:56:42.164Z,35.44
2018-09-16T16:59:10.412Z,35.38
2018-09-16T17:01:38.677Z,34.55
2018-09-16T17:04:06.913Z,35.08
2018-09-16T17:06:35.192Z,35.09
2018-09-16T17:09:03.620Z,35.24
2018-09-16T17:11:31.865Z,35.58
2018-09-16T17:14:00.117Z,36.06
2018-09-16T17:16:28.377Z,35.55
2018-09-16T17:18:56.673Z,35.11
2018-09-16T17:21:24.908Z,34.80
2018-09-16T17:23:53.277Z,35.16
2018-09-16T17:26:21.854Z,34.97
2018-09-16T17:28:50.213Z,35.93
2018-09-16T17:31:18.505Z,35.24
2018-09-16T17:33:46.760Z,36.51
2018-09-16T17:36:14.978Z,36.27
2018-09-16T17:38:43.361Z,36.22
2018-09-16T17:41:11.637Z,36.84
2018-09-16T17:43:40.033Z,37.41
2018-09-16T17:46:08.694Z,36.72
2018-09-16T17:48:37.028Z,37.05
2018-09-16T17:51:05.460Z,36.30
2018-09-16T17:53:33.773Z,36.39
2018-09-16T17:56:02.205Z,37.24
2018-09-16T17:58:30.469Z,36.88
2018-09-16T18:00:58.753Z,37.20
2018-09-16T18:03:27.047Z,38.17
2018-09-16T18:05:56.235Z,37.95
2018-09-16T18:08:30.037Z,38.09
2018-09-16T18:10:58.412Z,38.51
2018-09-16T18:13:26.783Z,38.95
2018-09-16T18:15:55.158Z,38.83
2018-09-16T18:18:23.465Z,38.67
2018-09-16T18:20:51.821Z,39.11
2018-09-16T18:23:20.163Z,39.58
2018-09-16T18:25:48.408Z,39.74
2018-09-16T18:28:16.720Z,39.36
2018-09-16T18:30:45.013Z,39.02
2018-09-16T18:33:13.265Z,39.22
2018-09-16T18:35:42.368Z,40.25
2018-09-16T18:38:10.674Z,39.86
2018-09-16T18:40:38.928Z,40.54
2018-09-16T18:43:07.270Z,40.22
2018-09-16T18:45:35.565Z,40.15
2018-09-16T18:48:03.845Z,40.89
2018-09-16T18:50:32.440Z,41.00
2018-09-16T18:53:00.676Z,41.28
2018-09-16T18:55:28.993Z,41.30
2018-09-16T18:57:57.289Z,40.81
2018-09-16T19:00:25.817Z,41.73
2018-09-16T19:02:54.240Z,41.99
2018-09-16T19:05:22.502Z,41.42
2018-09-16T19:07:51.205Z,42.00
2018-09-16T19:10:19.816Z,41.58
2018-09-16T19:12:48.108Z,41.87
2018-09-16T19:15:16.453Z,42.53
2018-09-16T19:17:44.748Z,42.03
2018-09-16T19:20:13.029Z,42.66
2018-09-16T19:22:41.312Z,42.65
2018-09-16T19:25:09.650Z,41.98
2018-09-16T19:27:38.633Z,42.06
2018-09-16T19:30:07.207Z,42.29
2018-09-16T19:32:35.506Z,42.43
2018-09-16T19:35:04.088Z,42.81
2018-09-16T19:37:32.339Z,43.47
2018-09-16T19:40:00.612Z,43.79
2018-09-16T19:42:28.889Z,43.83
2018-09-16T19:44:57.153Z,43.81
2018-09-16T19:47:26.399Z,43.34
2018-09-16T19:49:54.640Z,43.80
2018-09-16T19:52:22.995Z,44.00
2018-09-16T19:54:51.308Z,43.99
2018-09-16T19:57:19.537Z,44.45
2018-09-16T19:59:47.806Z,43.77
2018-09-16T20:02:16.066Z,44.17
2018-09-16T20:04:44.401Z,43.25
2018-09-16T20:07:13.057Z,43.58
2018-09-16T20:09:41.450Z,44.34
2018-09-16T20:12:09.857Z,44.60
2018-09-16T20:14:38.092Z,44.56
2018-09-16T20:17:06.313Z,44.98
2018-09-16T20:19:34.657Z,45.55
2018-09-16T20:22:02.878Z,45.14
2018-09-16T20:24:31.117Z,45.76
2018-09-16T20:26:59.355Z,45.64
2018-09-16T20:29:27.609Z,45.28
2018-09-16T20:31:55.919Z,44.99
2018-09-16T20:34:24.173Z,45.12
2018-09-16T20:36:52.441Z,45.22
2018-09-16T20:39:20.674Z,45.38
2018-09-16T20:41:49.011Z,45.32
2018-09-16T20:44:17.572Z,44.75
2018-09-16T20:46:45.852Z,44.84
2018-09-16T20:49:14.241Z,45.95
2018-09-16T20:51:42.468Z,45.56
2018-09-16T20:54:10.865Z,46.10
2018-09-16T20:56:39.363Z,46.06
2018-09-16T20:59:07.788Z,46.22
2018-09-16T21:01:36.125Z,46.54
2018-09-16T21:04:05.329Z,47.05
2018-09-16T21:06:33.544Z,46.72
2018-09-16T21:09:01.803Z,46.55
2018-09-16T21:11:30.037Z,46.23
2018-09-16T21:13:58.326Z,47.07
2018-09-16T21:16:26.557Z,47.60
2018-09-16T21:18:54.792Z,47.00
2018-09-16T21:21:23.902Z,47.21
2018-09-16T21:23:52.898Z,47.71
2018-09-16T21:26:21.330Z,47.71
2018-09-16T21:28:49.809Z,47.77
2018-09-16T21:31:18.040Z,47.32
2018-09-16T21:33:46.248Z,47.76
2018-09-16T21:36:14.486Z,48.05
2018-09-16T21:38:42.735Z,48.29
2018-09-16T21:41:10.974Z,48.21
2018-09-16T21:43:39.177Z,48.29
2018-09-16T21:46:07.426Z,48.32
2018-09-16T21:48:35.645Z,48.94
2018-09-16T21:51:03.887Z,48.13
2018-09-16T21:53:32.097Z,49.26
2018-09-16T21:56:00.332Z,48.68
2018-09-16T21:58:28.537Z,48.64
2018-09-16T22:00:56.804Z,49.77
2018-09-16T22:03:25.948Z,49.58
2018-09-16T22:05:54.865Z,49.68
2018-09-16T22:08:23.108Z,49.93
2018-09-16T22:10:51.349Z,50.03
2018-09-16T22:13:19.628Z,50.81
2018-09-16T22:15:47.992Z,50.21
2018-09-16T22:18:16.229Z,50.76
2018-09-16T22:20:44.485Z,50.67
2018-09-16T22:23:12.683Z,50.83
2018-09-16T22:25:40.921Z,51.09
2018-09-16T22:28:09.141Z,50.46
2018-09-16T22:30:37.404Z,50.49
2018-09-16T22:33:05.640Z,50.51
2018-09-16T22:35:33.906Z,50.32
2018-09-16T22:38:02.144Z,50.95
2018-09-16T22:40:30.348Z,51.24
2018-09-16T22:42:58.580Z,51.42
2018-09-16T22:45:26.800Z,50.88
2018-09-16T22:47:55.032Z,51.54
2018-09-16T22:50:23.237Z,51.07
2018-09-16T22:52:51.456Z,51.26
2018-09-16T22:55:19.657Z,50.77
2018-09-16T22:57:47.920Z,50.62
2018-09-16T23:00:17.726Z,50.45
2018-09-16T23:02:45.972Z,51.60
2018-09-16T23:05:14.208Z,51.18
2018-09-16T23:07:42.965Z,51.89
2018-09-16T23:10:11.173Z,52.03
2018-09-16T23:12:39.716Z,52.33
2018-09-16T23:15:07.947Z,52.43
2018-09-16T23:17:36.172Z,52.28
2018-09-16T23:20:04.424Z,52.68
2018-09-16T23:22:32.652Z,52.34
2018-09-16T23:25:00.869Z,53.34
2018-09-16T23:27:29.097Z,52.76
2018-09-16T23:29:57.325Z,53.55
2018-09-16T23:32:25.556Z,53.55
2018-09-16T23:34:53.796Z,53.11
2018-09-16T23:37:22.053Z,52.40
2018-09-16T23:39:50.284Z,52.77
2018-09-16T23:42:18.496Z,52.76
2018-09-16T23:44:46.729Z,52.59
2018-09-16T23:47:14.941Z,53.35
2018-09-16T23:49:43.179Z,53.43
2018-09-16T23:52:11.389Z,53.85
2018-09-16T23:54:39.640Z,53.58
2018-09-16T23:57:07.857Z,53.73
2018-09-16T23:59:36.108Z,53.53
